Time;durP1;ratioP1;P1;durP2;ratioP2;P2;SDS_P1;SDS_P2;PMS_P1;PMS_P2;Temp;Humidity;BMP_temperature;BMP_pressure;BME280_temperature;BME280_humidity;BME280_pressure;Samples;Min_cycle;Max_cycle;Signal;HPM_P1;HPM_P2
2023/08/07 00:00:12;;;;;;;;;;;;;;;24.13;49.00;100975.06;5060060;28;19945;-70
2023/08/07 00:02:38;;;;;;;;;;;;;;;24.17;48.87;100976.28;5052745;28;20023;-70
2023/08/07 00:05:04;;;;;;;;;;;;;;;24.14;49.13;100968.72;5055344;28;20072;-71
2023/08/07 00:07:29;;;;;;;;;;;;;;;24.14;49.09;100964.22;5050572;28;19931;-71
2023/08/07 00:09:55;;;;;;;;;;;;;;;24.14;49.04;100968.72;5056264;28;20002;-71
2023/08/07 00:12:20;;;;;;;;;;;;;;;24.14;49.21;100952.75;5052642;28;19935;-70
2023/08/07 00:14:47;;;;;;;;;;;;;;;24.13;49.16;100956.44;5066170;28;19931;-70
2023/08/07 00:17:12;;;;;;;;;;;;;;;24.16;48.95;100956.84;5058286;28;19954;-70
2023/08/07 00:19:38;;;;;;;;;;;;;;;24.14;48.90;100958.91;5051623;28;20888;-70
2023/08/07 00:22:03;;;;;;;;;;;;;;;24.13;48.95;100957.25;5061738;28;20491;-71
2023/08/07 00:24:29;;;;;;;;;;;;;;;24.11;49.08;100956.66;5058040;28;20040;-70
2023/08/07 00:26:54;;;;;;;;;;;;;;;24.09;49.16;100954.19;5055639;28;20295;-70
2023/08/07 00:29:19;;;;;;;;;;;;;;;24.11;49.05;100951.31;5084099;27;20157;-70
2023/08/07 00:31:45;;;;;;;;;;;;;;;24.14;49.08;100947.44;5059202;28;19944;-70
2023/08/07 00:34:10;;;;;;;;;;;;;;;24.12;49.05;100955.63;5057239;28;19946;-70
2023/08/07 00:36:36;;;;;;;;;;;;;;;24.14;48.89;100958.91;5086781;27;19948;-71
2023/08/07 00:39:03;;;;;;;;;;;;;;;24.10;49.04;100963.00;5053132;28;19942;-70
2023/08/07 00:41:29;;;;;;;;;;;;;;;24.09;49.01;100959.50;5082986;27;19950;-71
2023/08/07 00:43:55;;;;;;;;;;;;;;;24.08;49.08;100955.22;5053901;28;20398;-70
2023/08/07 00:46:21;;;;;;;;;;;;;;;24.14;48.93;100963.41;5058032;28;19945;-70
2023/08/07 00:48:46;;;;;;;;;;;;;;;24.13;49.06;100965.25;5054066;28;19930;-71
2023/08/07 00:51:12;;;;;;;;;;;;;;;24.11;49.03;100954.81;5053723;28;20020;-71
2023/08/07 00:53:39;;;;;;;;;;;;;;;24.13;48.98;100962.59;5053995;28;20360;-69
2023/08/07 00:56:05;;;;;;;;;;;;;;;24.10;49.14;100960.34;5054052;28;19938;-71
2023/08/07 00:58:30;;;;;;;;;;;;;;;24.08;49.16;100963.19;5057861;28;19937;-71
2023/08/07 01:00:56;;;;;;;;;;;;;;;24.11;49.07;100964.63;5054481;28;20417;-71
2023/08/07 01:03:23;;;;;;;;;;;;;;;24.07;49.12;100961.56;5081751;27;20365;-71
2023/08/07 01:05:48;;;;;;;;;;;;;;;24.10;49.21;100963.00;5056477;28;19930;-71
2023/08/07 01:08:14;;;;;;;;;;;;;;;24.01;49.06;100953.56;5055959;28;19986;-69
2023/08/07 01:10:39;;;;;;;;;;;;;;;24.10;48.90;100965.66;5054673;28;19997;-70
2023/08/07 01:13:19;;;;;;;;;;;;;;;24.09;49.01;100964.84;5079854;28;19928;-70
2023/08/07 01:15:45;;;;;;;;;;;;;;;24.14;49.00;100969.53;5056002;28;20297;-69
2023/08/07 01:18:11;;;;;;;;;;;;;;;24.13;48.88;100969.75;5090779;27;19983;-70
2023/08/07 01:20:37;;;;;;;;;;;;;;;24.10;48.92;100963.81;5053323;28;19923;-71
2023/08/07 01:23:02;;;;;;;;;;;;;;;24.09;48.98;100959.50;5062713;28;19978;-71
2023/08/07 01:25:29;;;;;;;;;;;;;;;24.09;48.86;100956.03;5057695;28;19977;-71
2023/08/07 01:28:17;;;;;;;;;;;;;;;24.11;48.84;100951.31;5051524;28;19954;-71
2023/08/07 01:30:46;;;;;;;;;;;;;;;24.08;49.15;100954.41;5083323;27;20005;-70
2023/08/07 01:33:17;;;;;;;;;;;;;;;24.10;48.98;100955.84;5056056;28;19938;-71
2023/08/07 01:36:03;;;;;;;;;;;;;;;24.05;48.96;100955.59;5055159;28;19929;-71
2023/08/07 01:38:29;;;;;;;;;;;;;;;24.09;49.07;100956.03;5055090;28;19930;-71
2023/08/07 01:40:55;;;;;;;;;;;;;;;24.10;49.01;100960.34;5056925;28;19944;-71
2023/08/07 01:43:21;;;;;;;;;;;;;;;24.06;49.01;100962.59;5050758;28;20549;-71
2023/08/07 01:45:46;;;;;;;;;;;;;;;24.07;49.00;100958.91;5059018;28;19932;-71
2023/08/07 01:48:11;;;;;;;;;;;;;;;24.08;49.06;100951.75;5058225;28;19939;-71
2023/08/07 01:50:38;;;;;;;;;;;;;;;24.09;48.87;100953.38;5086108;28;19998;-69
2023/08/07 01:53:03;;;;;;;;;;;;;;;24.07;48.95;100955.44;5054361;28;19936;-70
2023/08/07 01:55:29;;;;;;;;;;;;;;;24.06;49.06;100946.63;5053231;28;19941;-71
2023/08/07 01:57:54;;;;;;;;;;;;;;;24.07;48.93;100940.28;5071600;28;19994;-71
2023/08/07 02:00:20;;;;;;;;;;;;;;;24.07;49.04;100952.78;5048269;28;20424;-70
2023/08/07 02:02:46;;;;;;;;;;;;;;;24.05;49.01;100950.28;5048001;28;19956;-71
2023/08/07 02:05:12;;;;;;;;;;;;;;;24.06;48.93;100953.78;5050181;28;20506;-69
2023/08/07 02:07:37;;;;;;;;;;;;;;;24.08;48.85;100944.59;5049914;28;19939;-71
2023/08/07 02:10:03;;;;;;;;;;;;;;;24.04;49.03;100947.84;5069206;28;19964;-71
2023/08/07 02:12:31;;;;;;;;;;;;;;;24.05;49.03;100952.13;5047880;28;20244;-71
2023/08/07 02:14:58;;;;;;;;;;;;;;;24.06;48.81;100951.94;5054694;28;19939;-70
2023/08/07 02:17:24;;;;;;;;;;;;;;;24.04;48.81;100956.63;5047204;28;19945;-72
2023/08/07 02:19:50;;;;;;;;;;;;;;;24.04;49.05;100955.81;5053321;28;19984;-72
2023/08/07 02:22:15;;;;;;;;;;;;;;;24.07;48.88;100969.53;5056835;28;19979;-72
2023/08/07 02:24:41;;;;;;;;;;;;;;;24.04;49.07;100969.13;5047316;28;19973;-71
2023/08/07 02:27:06;;;;;;;;;;;;;;;24.03;48.96;100972.78;5057748;28;19998;-70
2023/08/07 02:29:34;;;;;;;;;;;;;;;24.02;48.91;100964.00;5051634;28;19933;-71
2023/08/07 02:31:59;;;;;;;;;;;;;;;24.05;49.05;100962.75;5077210;28;19936;-72
2023/08/07 02:34:25;;;;;;;;;;;;;;;24.05;48.92;100968.91;5050584;28;20316;-70
2023/08/07 02:36:50;;;;;;;;;;;;;;;24.03;48.96;100968.28;5054254;28;20027;-72
2023/08/07 02:39:16;;;;;;;;;;;;;;;24.03;48.84;100960.31;5077533;28;20024;-72
2023/08/07 02:41:41;;;;;;;;;;;;;;;24.02;48.94;100965.84;5048456;28;19979;-72
2023/08/07 02:44:07;;;;;;;;;;;;;;;24.03;48.94;100972.78;5047196;28;19933;-71
2023/08/07 02:46:34;;;;;;;;;;;;;;;24.04;48.94;100966.44;5050863;28;19973;-70
2023/08/07 02:48:59;;;;;;;;;;;;;;;24.03;48.97;100970.13;5060220;28;19944;-71
2023/08/07 02:51:25;;;;;;;;;;;;;;;23.99;49.00;100975.06;5052542;28;19957;-70
2023/08/07 02:53:50;;;;;;;;;;;;;;;24.03;48.81;100962.16;5051939;28;20710;-72
2023/08/07 02:56:15;;;;;;;;;;;;;;;24.01;49.08;100959.69;5051877;28;19948;-71
2023/08/07 02:58:41;;;;;;;;;;;;;;;24.00;49.03;100971.38;5049590;28;19986;-71
2023/08/07 03:01:06;;;;;;;;;;;;;;;23.99;48.91;100961.75;5051234;28;19962;-71
2023/08/07 03:03:32;;;;;;;;;;;;;;;24.02;48.82;100974.63;5057754;28;19935;-70
2023/08/07 03:05:57;;;;;;;;;;;;;;;24.01;48.84;100974.84;5054887;28;19934;-69
2023/08/07 03:08:22;;;;;;;;;;;;;;;24.00;48.99;100975.88;5059492;28;19939;-70
2023/08/07 03:10:52;;;;;;;;;;;;;;;23.98;49.00;100976.06;5057232;28;20474;-71
2023/08/07 03:13:17;;;;;;;;;;;;;;;24.01;48.93;100967.69;5056518;28;19933;-71
2023/08/07 03:15:43;;;;;;;;;;;;;;;23.99;48.79;100968.91;5058040;28;20023;-70
2023/08/07 03:18:08;;;;;;;;;;;;;;;23.99;48.86;100961.75;5054796;28;19960;-72
2023/08/07 03:20:36;;;;;;;;;;;;;;;24.00;48.77;100959.91;5084422;27;20442;-72
2023/08/07 03:23:01;;;;;;;;;;;;;;;24.00;49.14;100952.75;5055924;28;19936;-71
2023/08/07 03:25:26;;;;;;;;;;;;;;;23.98;48.85;100949.47;5055160;28;20831;-73
2023/08/07 03:27:52;;;;;;;;;;;;;;;24.01;48.69;100948.25;5084015;27;20029;-72
2023/08/07 03:30:18;;;;;;;;;;;;;;;24.02;48.87;100952.53;5082649;27;19966;-71
2023/08/07 03:32:43;;;;;;;;;;;;;;;23.95;49.21;100949.88;5084350;27;20014;-72
2023/08/07 03:35:12;;;;;;;;;;;;;;;23.99;48.89;100943.13;5080734;27;20852;-71
2023/08/07 03:37:40;;;;;;;;;;;;;;;24.01;48.75;100953.56;5050741;28;20278;-71
2023/08/07 03:40:06;;;;;;;;;;;;;;;24.00;48.99;100949.28;5053977;28;20017;-72
2023/08/07 03:42:32;;;;;;;;;;;;;;;23.97;48.96;100955.00;5056409;28;19962;-72
2023/08/07 03:44:58;;;;;;;;;;;;;;;23.98;48.92;100965.44;5057810;28;19987;-70
2023/08/07 03:47:23;;;;;;;;;;;;;;;24.00;48.81;100955.41;5054986;28;19983;-70
2023/08/07 03:49:50;;;;;;;;;;;;;;;23.97;48.78;100965.63;5046769;28;20032;-70
2023/08/07 03:52:15;;;;;;;;;;;;;;;24.00;48.75;100958.06;5054901;28;19973;-70
2023/08/07 03:54:40;;;;;;;;;;;;;;;23.75;48.84;100917.97;5070048;28;19934;-70
2023/08/07 03:57:08;;;;;;;;;;;;;;;23.99;48.99;100958.28;5056456;28;20016;-71
2023/08/07 03:59:33;;;;;;;;;;;;;;;23.97;48.91;100958.47;5052855;28;19930;-71
2023/08/07 04:01:59;;;;;;;;;;;;;;;23.97;48.91;100963.81;5051156;28;19955;-70
2023/08/07 04:04:24;;;;;;;;;;;;;;;23.97;49.01;100973.63;5090571;27;20045;-71
2023/08/07 04:06:49;;;;;;;;;;;;;;;24.00;48.84;100975.88;5056980;28;20420;-71
2023/08/07 04:09:16;;;;;;;;;;;;;;;23.98;48.95;100975.25;5055162;28;19937;-71
2023/08/07 04:11:42;;;;;;;;;;;;;;;23.98;48.80;100981.41;5048303;28;19949;-70
2023/08/07 04:14:07;;;;;;;;;;;;;;;23.99;48.75;100977.72;5056090;28;19932;-71
2023/08/07 04:16:33;;;;;;;;;;;;;;;23.96;48.93;100977.31;5055421;28;21247;-71
2023/08/07 04:18:58;;;;;;;;;;;;;;;23.93;49.08;100975.88;5055940;28;19938;-70
2023/08/07 04:21:24;;;;;;;;;;;;;;;23.96;48.77;100978.13;5056317;28;20037;-70
2023/08/07 04:23:49;;;;;;;;;;;;;;;23.95;49.07;100973.00;5051025;28;19936;-70
2023/08/07 04:26:14;;;;;;;;;;;;;;;23.97;48.88;100978.94;5055536;28;20535;-71
2023/08/07 04:28:40;;;;;;;;;;;;;;;23.93;48.86;100975.06;5060277;28;19927;-73
2023/08/07 04:31:05;;;;;;;;;;;;;;;23.94;48.95;100980.16;5056655;28;20481;-72
2023/08/07 04:33:31;;;;;;;;;;;;;;;23.95;48.82;100981.81;5057589;28;19934;-72
2023/08/07 04:35:56;;;;;;;;;;;;;;;23.92;49.03;100990.19;5053493;28;19973;-72
2023/08/07 04:38:22;;;;;;;;;;;;;;;23.90;48.97;100983.44;5083043;27;19923;-70
2023/08/07 04:40:48;;;;;;;;;;;;;;;23.91;49.06;100987.75;5054879;28;20556;-71
2023/08/07 04:43:13;;;;;;;;;;;;;;;23.90;48.95;100981.59;5056700;28;20801;-71
2023/08/07 04:45:39;;;;;;;;;;;;;;;23.89;49.01;100979.97;5052087;28;20894;-71
2023/08/07 04:48:06;;;;;;;;;;;;;;;23.72;48.97;100960.09;5051893;28;20470;-71
2023/08/07 04:50:31;;;;;;;;;;;;;;;23.90;49.08;100992.25;5053901;28;20381;-71
2023/08/07 04:52:56;;;;;;;;;;;;;;;23.92;49.02;100989.38;5058577;28;20050;-71
2023/08/07 04:55:22;;;;;;;;;;;;;;;23.92;49.02;100992.84;5053428;28;20491;-71
2023/08/07 04:57:47;;;;;;;;;;;;;;;23.89;49.05;100995.94;5055666;28;19957;-72
2023/08/07 05:00:13;;;;;;;;;;;;;;;23.91;49.10;100998.38;5050544;28;19981;-71
2023/08/07 05:02:39;;;;;;;;;;;;;;;23.92;49.02;101008.81;5057104;28;20443;-72
2023/08/07 05:05:04;;;;;;;;;;;;;;;23.91;48.95;101011.69;5052457;28;19984;-72
2023/08/07 05:07:29;;;;;;;;;;;;;;;23.91;49.03;101011.69;5059185;28;19999;-71
2023/08/07 05:09:55;;;;;;;;;;;;;;;23.91;48.99;101017.00;5057520;28;19961;-71
2023/08/07 05:12:20;;;;;;;;;;;;;;;23.90;49.14;101020.69;5058467;28;19952;-71
2023/08/07 05:14:45;;;;;;;;;;;;;;;23.91;49.02;101019.66;5056022;28;19929;-71
2023/08/07 05:17:12;;;;;;;;;;;;;;;23.90;49.03;101029.47;5055219;28;19933;-72
2023/08/07 05:19:38;;;;;;;;;;;;;;;23.92;49.11;101030.09;5052778;28;19939;-72
2023/08/07 05:22:04;;;;;;;;;;;;;;;23.91;48.94;101036.44;5063567;28;20442;-71
2023/08/07 05:24:34;;;;;;;;;;;;;;;23.91;48.84;101036.44;5053972;28;20399;-71
2023/08/07 05:26:59;;;;;;;;;;;;;;;23.92;48.94;101026.63;5065473;28;19938;-70
2023/08/07 05:29:24;;;;;;;;;;;;;;;23.92;49.03;101037.25;5054201;28;19941;-70
2023/08/07 05:31:50;;;;;;;;;;;;;;;23.93;49.02;101037.03;5056660;28;20084;-70
2023/08/07 05:34:15;;;;;;;;;;;;;;;23.92;49.03;101043.38;5051100;28;19972;-70
2023/08/07 05:36:41;;;;;;;;;;;;;;;23.91;48.87;101039.09;5049963;28;20301;-70
2023/08/07 05:39:06;;;;;;;;;;;;;;;23.92;48.99;101040.72;5056704;28;20285;-71
2023/08/07 05:41:32;;;;;;;;;;;;;;;23.93;49.10;101046.88;5056521;28;20012;-71
2023/08/07 05:43:57;;;;;;;;;;;;;;;23.94;48.76;101048.50;5047386;28;19933;-71
2023/08/07 05:46:22;;;;;;;;;;;;;;;23.94;49.08;101049.31;5046684;28;19968;-70
2023/08/07 05:48:48;;;;;;;;;;;;;;;23.93;48.97;101049.53;5047017;28;19935;-70
2023/08/07 05:51:13;;;;;;;;;;;;;;;23.92;48.97;101050.56;5052774;28;21015;-71
2023/08/07 05:53:38;;;;;;;;;;;;;;;23.93;49.02;101053.00;5050222;28;19938;-71
2023/08/07 05:56:04;;;;;;;;;;;;;;;23.93;48.94;101054.84;5055638;28;19963;-71
2023/08/07 05:58:29;;;;;;;;;;;;;;;23.94;48.93;101054.66;5051537;28;19927;-70
2023/08/07 06:00:54;;;;;;;;;;;;;;;23.92;48.84;101067.31;5052070;28;19931;-71
2023/08/07 06:03:20;;;;;;;;;;;;;;;23.95;49.06;101063.44;5046170;28;19935;-70
2023/08/07 06:05:45;;;;;;;;;;;;;;;23.95;48.92;101072.25;5051914;28;20404;-70
2023/08/07 06:08:10;;;;;;;;;;;;;;;23.91;48.94;101073.66;5050675;28;20303;-70
2023/08/07 06:10:37;;;;;;;;;;;;;;;23.92;49.01;101077.97;5052010;28;19969;-70
2023/08/07 06:13:03;;;;;;;;;;;;;;;23.94;49.00;101085.75;5059987;28;20007;-71
2023/08/07 06:15:29;;;;;;;;;;;;;;;23.94;48.95;101078.59;5052350;28;19937;-72
2023/08/07 06:17:54;;;;;;;;;;;;;;;23.96;48.83;101084.53;5049729;28;20757;-70
2023/08/07 06:20:20;;;;;;;;;;;;;;;23.96;48.72;101087.19;5048935;28;19965;-71
2023/08/07 06:22:45;;;;;;;;;;;;;;;23.95;48.82;101098.84;5051589;28;20028;-70
2023/08/07 06:25:11;;;;;;;;;;;;;;;23.92;49.04;101098.44;5053042;28;19934;-71
2023/08/07 06:27:36;;;;;;;;;;;;;;;23.95;48.93;101096.19;5052695;28;20059;-71
2023/08/07 06:30:01;;;;;;;;;;;;;;;23.92;48.89;101101.09;5051084;28;19962;-72
2023/08/07 06:32:27;;;;;;;;;;;;;;;23.95;49.06;101106.00;5049312;28;19931;-70
2023/08/07 06:34:52;;;;;;;;;;;;;;;23.96;48.91;101112.97;5055322;28;19958;-70
2023/08/07 06:37:18;;;;;;;;;;;;;;;23.94;48.80;101117.66;5053711;28;19969;-72
2023/08/07 06:39:43;;;;;;;;;;;;;;;23.90;49.03;101124.41;5049927;28;20324;-71
2023/08/07 06:42:09;;;;;;;;;;;;;;;23.94;48.85;101120.31;5050234;28;19962;-71
2023/08/07 06:44:35;;;;;;;;;;;;;;;23.96;48.86;101128.91;5054174;28;20028;-71
2023/08/07 06:47:00;;;;;;;;;;;;;;;23.98;48.83;101121.56;5049929;28;19943;-71
2023/08/07 06:49:26;;;;;;;;;;;;;;;23.99;48.84;101123.19;5054203;28;19936;-73
2023/08/07 06:51:51;;;;;;;;;;;;;;;23.99;48.89;101124.00;5080915;28;20424;-71
2023/08/07 06:54:16;;;;;;;;;;;;;;;23.99;48.90;101126.66;5058036;28;20050;-71
2023/08/07 06:56:43;;;;;;;;;;;;;;;23.99;48.72;101124.00;5046877;28;19938;-71
2023/08/07 06:59:09;;;;;;;;;;;;;;;24.00;48.93;101135.47;5053937;28;20027;-71
2023/08/07 07:01:34;;;;;;;;;;;;;;;23.97;49.00;101133.22;5047171;28;20060;-72
2023/08/07 07:03:59;;;;;;;;;;;;;;;23.99;48.82;101147.13;5045363;28;20421;-71
2023/08/07 07:06:27;;;;;;;;;;;;;;;24.01;48.74;101142.44;5051204;28;20041;-71
2023/08/07 07:08:54;;;;;;;;;;;;;;;24.00;48.57;101143.44;5054417;28;19941;-70
2023/08/07 07:11:20;;;;;;;;;;;;;;;23.97;48.81;101143.84;5053634;28;20401;-70
2023/08/07 07:13:45;;;;;;;;;;;;;;;24.00;48.78;101148.78;5052416;28;19944;-71
2023/08/07 07:16:12;;;;;;;;;;;;;;;23.99;48.72;101145.28;5053935;28;19926;-74
2023/08/07 07:18:38;;;;;;;;;;;;;;;23.97;48.83;101152.66;5050815;28;19941;-73
2023/08/07 07:21:03;;;;;;;;;;;;;;;23.95;49.00;101159.19;5047072;28;19990;-70
2023/08/07 07:23:29;;;;;;;;;;;;;;;23.90;49.03;101158.97;5050539;28;20438;-70
2023/08/07 07:25:54;;;;;;;;;;;;;;;23.91;48.96;101152.63;5048598;28;19935;-72
2023/08/07 07:28:20;;;;;;;;;;;;;;;23.92;49.03;101162.25;5067684;28;19935;-70
2023/08/07 07:30:45;;;;;;;;;;;;;;;23.92;49.10;101167.59;5043781;28;19951;-70
2023/08/07 07:33:13;;;;;;;;;;;;;;;23.93;48.74;101170.03;5052601;28;19991;-70
2023/08/07 07:35:39;;;;;;;;;;;;;;;23.92;48.76;101167.59;5064060;28;19974;-70
2023/08/07 07:38:04;;;;;;;;;;;;;;;23.96;48.92;101174.13;5056687;28;19940;-70
2023/08/07 07:40:30;;;;;;;;;;;;;;;23.94;48.85;101181.50;5064500;28;20417;-70
2023/08/07 07:42:55;;;;;;;;;;;;;;;23.95;48.95;101193.78;5062895;28;19961;-72
2023/08/07 07:45:20;;;;;;;;;;;;;;;23.98;48.77;101188.06;5071144;28;19976;-71
2023/08/07 07:47:46;;;;;;;;;;;;;;;23.94;48.79;101176.19;5065076;28;19938;-72
2023/08/07 07:50:12;;;;;;;;;;;;;;;23.97;48.87;101181.09;5053700;28;19963;-71
2023/08/07 07:52:38;;;;;;;;;;;;;;;23.99;48.72;101179.06;5059528;28;19979;-71
2023/08/07 07:55:04;;;;;;;;;;;;;;;23.98;48.63;101185.41;5076141;28;20053;-70
2023/08/07 07:57:30;;;;;;;;;;;;;;;23.98;48.70;101190.72;5072135;28;19980;-70
2023/08/07 07:59:55;;;;;;;;;;;;;;;23.98;48.70;101196.84;5060949;28;19963;-71
2023/08/07 08:02:22;;;;;;;;;;;;;;;24.01;48.61;101199.09;5070130;28;20025;-71
2023/08/07 08:04:48;;;;;;;;;;;;;;;23.97;48.76;101203.19;5051400;28;19979;-70
2023/08/07 08:07:13;;;;;;;;;;;;;;;23.97;48.57;101200.53;5061687;28;19940;-70
2023/08/07 08:09:38;;;;;;;;;;;;;;;23.99;48.66;101210.97;5056649;28;20408;-70
2023/08/07 08:12:04;;;;;;;;;;;;;;;23.98;48.72;101218.13;5053239;28;20039;-72
2023/08/07 08:14:30;;;;;;;;;;;;;;;23.95;48.77;101228.34;5053877;28;19936;-71
2023/08/07 08:16:55;;;;;;;;;;;;;;;23.91;48.84;101221.78;5051305;28;19938;-70
2023/08/07 08:19:20;;;;;;;;;;;;;;;23.92;48.77;101232.22;5053139;28;19971;-72
2023/08/07 08:21:46;;;;;;;;;;;;;;;23.91;48.68;101224.44;5052249;28;19945;-71
2023/08/07 08:24:11;;;;;;;;;;;;;;;23.88;48.70;101236.31;5054817;28;20081;-70
2023/08/07 08:26:36;;;;;;;;;;;;;;;23.88;48.57;101235.47;5072664;28;20050;-70
2023/08/07 08:29:02;;;;;;;;;;;;;;;23.89;48.69;101251.25;5066836;28;19940;-70
2023/08/07 08:31:27;;;;;;;;;;;;;;;23.86;48.62;101245.47;5057049;28;19959;-70
2023/08/07 08:33:53;;;;;;;;;;;;;;;23.88;48.75;101244.28;5060925;28;19938;-70
2023/08/07 08:36:18;;;;;;;;;;;;;;;23.87;48.77;101249.78;5051193;28;20077;-71
2023/08/07 08:38:45;;;;;;;;;;;;;;;23.87;48.80;101253.25;5050756;28;19953;-70
2023/08/07 08:41:10;;;;;;;;;;;;;;;23.91;48.55;101248.38;5056157;28;19976;-72
2023/08/07 08:43:37;;;;;;;;;;;;;;;23.89;48.53;101255.75;5057039;28;20045;-71
2023/08/07 08:46:04;;;;;;;;;;;;;;;23.91;48.57;101249.22;5061686;28;19958;-71
2023/08/07 08:48:31;;;;;;;;;;;;;;;23.94;48.63;101253.31;5053155;28;19936;-70
2023/08/07 08:50:57;;;;;;;;;;;;;;;23.94;48.53;101248.00;5058839;28;19949;-72
2023/08/07 08:53:22;;;;;;;;;;;;;;;23.93;48.50;101252.50;5050341;28;19938;-70
2023/08/07 08:55:48;;;;;;;;;;;;;;;23.93;48.68;101251.66;5050968;28;19945;-70
2023/08/07 08:58:17;;;;;;;;;;;;;;;23.96;48.44;101253.94;5054593;28;19935;-71
2023/08/07 09:00:42;;;;;;;;;;;;;;;23.94;48.44;101246.16;5087456;27;19948;-70
2023/08/07 09:03:08;;;;;;;;;;;;;;;23.97;48.35;101237.78;5049589;28;19965;-69
2023/08/07 09:05:35;;;;;;;;;;;;;;;23.99;48.28;101240.22;5053994;28;20336;-71
2023/08/07 09:08:01;;;;;;;;;;;;;;;23.97;48.34;101245.75;5052881;28;19938;-71
2023/08/07 09:10:27;;;;;;;;;;;;;;;24.00;48.39;101253.34;5056864;28;20000;-70
2023/08/07 09:12:54;;;;;;;;;;;;;;;24.00;48.19;101253.34;5064066;28;19935;-71
2023/08/07 09:15:21;;;;;;;;;;;;;;;24.00;48.13;101249.84;5065654;28;19943;-71
2023/08/07 09:17:47;;;;;;;;;;;;;;;24.01;48.02;101247.00;5066036;28;19926;-71
2023/08/07 09:20:14;;;;;;;;;;;;;;;24.03;47.95;101252.13;5061764;28;19957;-71
2023/08/07 09:22:40;;;;;;;;;;;;;;;24.02;47.96;101261.94;5068787;28;19932;-70
2023/08/07 09:25:06;;;;;;;;;;;;;;;24.03;47.80;101260.91;5039673;28;19991;-70
2023/08/07 09:27:31;;;;;;;;;;;;;;;24.04;47.80;101261.72;5052995;28;19971;-70
2023/08/07 09:29:57;;;;;;;;;;;;;;;24.02;47.74;101269.91;5049432;28;19956;-69
2023/08/07 09:32:24;;;;;;;;;;;;;;;24.04;47.47;101269.72;5047879;28;19935;-69
2023/08/07 09:34:50;;;;;;;;;;;;;;;24.06;47.39;101263.22;5083805;27;19941;-70
2023/08/07 09:37:15;;;;;;;;;;;;;;;24.06;47.31;101276.50;5059681;28;19941;-71
2023/08/07 09:39:42;;;;;;;;;;;;;;;24.08;47.22;101274.47;5089568;28;19997;-70
2023/08/07 09:42:15;;;;;;;;;;;;;;;24.08;47.22;101268.34;5054955;28;19994;-70
2023/08/07 09:44:40;;;;;;;;;;;;;;;24.09;47.23;101262.81;5056214;28;20683;-71
2023/08/07 09:47:15;;;;;;;;;;;;;;;24.09;47.23;101260.16;5054442;28;19934;-71
2023/08/07 09:49:41;;;;;;;;;;;;;;;24.10;47.13;101275.09;5048374;28;19930;-69
2023/08/07 09:52:09;;;;;;;;;;;;;;;24.09;46.92;101278.78;5055674;28;19987;-70
2023/08/07 09:54:35;;;;;;;;;;;;;;;24.09;46.77;101292.06;5056695;28;19946;-70
2023/08/07 09:57:01;;;;;;;;;;;;;;;24.11;46.79;101278.56;5056592;28;19930;-71
2023/08/07 09:59:27;;;;;;;;;;;;;;;24.10;46.51;101279.59;5053247;28;19940;-70
2023/08/07 10:01:53;;;;;;;;;;;;;;;24.08;46.64;101271.81;5063748;28;19935;-71
2023/08/07 10:04:18;;;;;;;;;;;;;;;24.10;46.72;101280.41;5057383;28;19955;-71
2023/08/07 10:06:43;;;;;;;;;;;;;;;24.08;46.77;101279.78;5050212;28;19934;-70
2023/08/07 10:09:09;;;;;;;;;;;;;;;24.09;46.92;101284.09;5062935;28;19941;-71
2023/08/07 10:11:34;;;;;;;;;;;;;;;24.09;46.88;101286.75;5051953;28;19953;-70
2023/08/07 10:14:00;;;;;;;;;;;;;;;24.10;46.68;101279.59;5050956;28;20026;-72
2023/08/07 10:16:27;;;;;;;;;;;;;;;24.11;46.79;101297.19;5052321;28;20586;-71
2023/08/07 10:18:53;;;;;;;;;;;;;;;24.11;46.63;101292.69;5060248;28;20053;-72
2023/08/07 10:21:19;;;;;;;;;;;;;;;24.13;46.27;101300.47;5066746;28;20020;-71
2023/08/07 10:23:45;;;;;;;;;;;;;;;24.11;46.36;101291.88;5058028;28;19934;-70
2023/08/07 10:26:12;;;;;;;;;;;;;;;24.11;46.35;101302.53;5047566;28;20465;-71
2023/08/07 10:28:39;;;;;;;;;;;;;;;24.09;46.51;101304.56;5053463;28;19934;-70
2023/08/07 10:31:06;;;;;;;;;;;;;;;24.09;46.43;101304.56;5057545;28;19953;-72
2023/08/07 10:33:32;;;;;;;;;;;;;;;24.08;46.71;101308.25;5050081;28;19980;-72
2023/08/07 10:35:59;;;;;;;;;;;;;;;24.10;46.51;101292.91;5050055;28;20381;-70
2023/08/07 10:38:25;;;;;;;;;;;;;;;24.07;46.52;101303.94;5059853;28;19940;-70
2023/08/07 10:41:01;;;;;;;;;;;;;;;24.07;46.36;101307.41;5091596;28;19933;-70
2023/08/07 10:43:27;;;;;;;;;;;;;;;24.09;46.42;101300.06;5053861;28;19958;-71
2023/08/07 10:45:53;;;;;;;;;;;;;;;24.07;46.53;101312.75;5053905;28;19926;-71
2023/08/07 10:48:19;;;;;;;;;;;;;;;24.06;46.80;101315.59;5054872;28;19937;-70
2023/08/07 10:50:59;;;;;;;;;;;;;;;23.89;46.63;101292.97;5051920;28;19957;-71
2023/08/07 10:53:27;;;;;;;;;;;;;;;24.07;46.79;101310.06;5046980;28;19933;-70
2023/08/07 10:55:54;;;;;;;;;;;;;;;24.11;46.39;101297.19;5055047;28;20356;-71
2023/08/07 10:58:23;;;;;;;;;;;;;;;24.11;46.57;101315.81;5069192;28;19934;-70
2023/08/07 11:00:49;;;;;;;;;;;;;;;24.08;46.46;101306.41;5071531;28;20009;-71
2023/08/07 11:03:27;;;;;;;;;;;;;;;24.07;46.49;101304.75;5063687;28;19994;-71
2023/08/07 11:05:53;;;;;;;;;;;;;;;24.09;46.53;101312.53;5059072;28;20418;-72
2023/08/07 11:08:22;;;;;;;;;;;;;;;24.14;46.27;101322.59;5059772;28;19971;-74
2023/08/07 11:10:47;;;;;;;;;;;;;;;24.09;46.63;101326.66;5053496;28;19958;-72
2023/08/07 11:13:13;;;;;;;;;;;;;;;24.11;46.27;101318.47;5059475;28;20709;-71
2023/08/07 11:15:38;;;;;;;;;;;;;;;24.13;46.05;101321.75;5048591;28;19927;-71
2023/08/07 11:18:04;;;;;;;;;;;;;;;24.13;46.05;101313.78;5082157;27;19988;-71
2023/08/07 11:20:30;;;;;;;;;;;;;;;24.09;45.84;101328.50;5061397;28;20473;-71
2023/08/07 11:22:55;;;;;;;;;;;;;;;24.05;45.78;101320.06;5057437;28;19993;-72
2023/08/07 11:25:20;;;;;;;;;;;;;;;24.07;45.93;101330.53;5061150;28;19927;-71
2023/08/07 11:27:46;;;;;;;;;;;;;;;24.06;45.91;101328.91;5054340;28;21285;-71
2023/08/07 11:30:11;;;;;;;;;;;;;;;24.02;46.01;101317.81;5055809;28;19953;-70
2023/08/07 11:32:37;;;;;;;;;;;;;;;24.01;46.09;101326.81;5085968;27;19931;-71
2023/08/07 11:35:04;;;;;;;;;;;;;;;23.99;46.06;101336.00;5055474;28;19941;-73
2023/08/07 11:37:30;;;;;;;;;;;;;;;24.00;45.98;101350.94;5057381;28;19935;-71
2023/08/07 11:39:59;;;;;;;;;;;;;;;23.97;46.28;101351.34;5061340;28;19979;-70
2023/08/07 11:42:27;;;;;;;;;;;;;;;23.99;46.01;101354.63;5051212;28;19952;-71
2023/08/07 11:44:52;;;;;;;;;;;;;;;23.84;46.03;101327.31;5055123;28;20039;-71
2023/08/07 11:47:17;;;;;;;;;;;;;;;24.00;45.88;101350.94;5052810;28;20027;-71
2023/08/07 11:49:43;;;;;;;;;;;;;;;23.99;46.07;101347.47;5068659;28;20031;-70
2023/08/07 11:52:08;;;;;;;;;;;;;;;24.01;46.13;101342.75;5054701;28;20821;-71
2023/08/07 11:54:33;;;;;;;;;;;;;;;24.02;45.07;101340.91;5053289;28;19937;-70
2023/08/07 11:57:00;;;;;;;;;;;;;;;23.94;45.20;101354.38;5052886;28;19933;-72
2023/08/07 11:59:25;;;;;;;;;;;;;;;23.96;45.61;101363.00;5054434;28;19941;-72
2023/08/07 12:01:51;;;;;;;;;;;;;;;23.98;45.98;101364.44;5050721;28;19929;-70
2023/08/07 12:04:17;;;;;;;;;;;;;;;24.02;46.05;101375.50;5060549;28;19933;-69
2023/08/07 12:06:55;;;;;;;;;;;;;;;24.04;46.04;101378.78;5090630;27;19996;-69
2023/08/07 12:09:20;;;;;;;;;;;;;;;24.08;46.09;101377.41;5061925;28;19930;-70
2023/08/07 12:11:46;;;;;;;;;;;;;;;24.10;45.92;101378.03;5074364;28;19993;-69
2023/08/07 12:14:17;;;;;;;;;;;;;;;24.09;46.21;101379.88;5061389;28;20425;-71
2023/08/07 12:16:47;;;;;;;;;;;;;;;24.13;46.13;101377.63;5069206;28;19935;-71
2023/08/07 12:19:14;;;;;;;;;;;;;;;24.09;46.05;101381.72;5066780;28;20774;-69
2023/08/07 12:21:39;;;;;;;;;;;;;;;24.13;45.89;101385.63;5062401;28;20905;-70
2023/08/07 12:24:06;;;;;;;;;;;;;;;24.14;46.13;101389.94;5064880;28;19946;-70
2023/08/07 12:26:32;;;;;;;;;;;;;;;24.15;46.03;101409.38;5068069;28;20594;-69
2023/08/07 12:28:57;;;;;;;;;;;;;;;24.14;46.25;101415.72;5067066;28;20013;-73